Wilson Maas — 8PSZ — position and weather

sailwx.info

Track history (hours):
 
Tides and Currents Weather Stations Pressure Air Temp Water Temp Dewpoint Dewpoint Depression Visibility Wind Speed Wind Dir Waves Ship Positions

Wilson Maas

Last reported at 2016-Sep-26 20:25 UTC. Time now 2016-Sep-27 15:31 UTC.
Position N 63°34' E 009°16'.

Length 78 m; draft 4.3 m.

Type: Cargo ship. MMSI: 314217000.

Date/timePositionNaut miles runAvg speedWind from/ knotsBaromVisibWave heightAir tempDewpointWater temp
2016-Sep-26 20:25N 63°34' E 009°16'4910.1
2016-Sep-26 15:34N 63°15' E 007°35'261 9.7
2016-Sep-25 12:28N 59°07' E 004°45'1011.5
2016-Sep-25 11:33N 58°56' E 004°49'1211.8
2016-Sep-25 10:33N 58°45' E 004°54'1211.5
2016-Sep-25 09:33N 58°34' E 004°58'2110.2
2016-Sep-25 07:32N 58°14' E 005°07'203 9.7
2016-Sep-24 10:33N 54°58' E 006°47'1010.2
2016-Sep-24 09:33N 54°49' E 006°54'6210.4
2016-Sep-24 03:33N 53°54' E 007°45'9 8.9
2016-Sep-24 02:33N 53°51' E 007°59'8 8.0
2016-Sep-24 01:33N 53°47' E 008°10'8 7.8
2016-Sep-24 00:33N 53°42' E 008°20'23 4.5
2016-Sep-23 19:31N 53°20' E 008°29'0 0.0
2016-Sep-23 17:28N 53°20' E 008°29'0 0.0
2016-Sep-23 16:31N 53°20' E 008°29'5 0.8
2016-Sep-23 09:33N 53°25' E 008°30'21 6.9
2016-Sep-23 06:33N 53°44' E 008°15'18 8.9
2016-Sep-23 04:33N 53°52' E 007°48'8 7.9
2016-Sep-23 03:33N 53°58' E 007°38'8 8.4
2016-Sep-23 02:33N 54°05' E 007°31'8 8.4
2016-Sep-23 01:33N 54°13' E 007°25'8 8.3
2016-Sep-23 00:33N 54°21' E 007°25'8 8.3
2016-Sep-22 23:33N 54°29' E 007°25'25 8.5
2016-Sep-22 20:33N 54°55' E 007°23'72 9.0
2016-Sep-22 12:33N 56°07' E 007°28'12510.3
2016-Sep-22 00:26N 58°06' E 008°35'1112.0
2016-Sep-21 23:33N 58°15' E 008°47'4911.9
2016-Sep-21 19:27N 58°52' E 009°48'13 4.0
2016-Sep-21 16:09N 59°03' E 010°03'0 0.0
2016-Sep-21 03:18N 59°03' E 010°03'0 0.0
2016-Sep-21 02:33N 59°03' E 010°03'0 0.0
2016-Sep-20 17:33N 59°03' E 010°03'0 0.0
2016-Sep-20 14:30N 59°03' E 010°03'0 0.0
2016-Sep-20 02:24N 59°03' E 010°03'0 0.0
2016-Sep-19 23:30N 59°03' E 010°03'0 0.0
2016-Sep-19 19:15N 59°03' E 010°03'  
2016-Sep-17 13:20N 58°44' E 009°45'  
Track history (hours):
 
Tides and Currents Weather Stations Pressure Air Temp Water Temp Dewpoint Dewpoint Depression Visibility Wind Speed Wind Dir Waves Ship Positions

Wilson Maas

Last reported at 2016-Sep-26 20:25 UTC. Time now 2016-Sep-27 15:31 UTC.
Position N 63°34' E 009°16'.

Length 78 m; draft 4.3 m.

Type: Cargo ship. MMSI: 314217000.

Date/timePositionNaut miles runAvg speedWind from/ knotsBaromVisibWave heightAir tempDewpointWater temp
2016-Sep-26 20:25N 63°34' E 009°16'4910.1
2016-Sep-26 15:34N 63°15' E 007°35'261 9.7
2016-Sep-25 12:28N 59°07' E 004°45'1011.5
2016-Sep-25 11:33N 58°56' E 004°49'1211.8
2016-Sep-25 10:33N 58°45' E 004°54'1211.5
2016-Sep-25 09:33N 58°34' E 004°58'2110.2
2016-Sep-25 07:32N 58°14' E 005°07'203 9.7
2016-Sep-24 10:33N 54°58' E 006°47'1010.2
2016-Sep-24 09:33N 54°49' E 006°54'6210.4
2016-Sep-24 03:33N 53°54' E 007°45'9 8.9
2016-Sep-24 02:33N 53°51' E 007°59'8 8.0
2016-Sep-24 01:33N 53°47' E 008°10'8 7.8
2016-Sep-24 00:33N 53°42' E 008°20'23 4.5
2016-Sep-23 19:31N 53°20' E 008°29'0 0.0
2016-Sep-23 17:28N 53°20' E 008°29'0 0.0
2016-Sep-23 16:31N 53°20' E 008°29'5 0.8
2016-Sep-23 09:33N 53°25' E 008°30'21 6.9
2016-Sep-23 06:33N 53°44' E 008°15'18 8.9
2016-Sep-23 04:33N 53°52' E 007°48'8 7.9
2016-Sep-23 03:33N 53°58' E 007°38'8 8.4
2016-Sep-23 02:33N 54°05' E 007°31'8 8.4
2016-Sep-23 01:33N 54°13' E 007°25'8 8.3
2016-Sep-23 00:33N 54°21' E 007°25'8 8.3
2016-Sep-22 23:33N 54°29' E 007°25'25 8.5
2016-Sep-22 20:33N 54°55' E 007°23'72 9.0
2016-Sep-22 12:33N 56°07' E 007°28'12510.3
2016-Sep-22 00:26N 58°06' E 008°35'1112.0
2016-Sep-21 23:33N 58°15' E 008°47'4911.9
2016-Sep-21 19:27N 58°52' E 009°48'13 4.0
2016-Sep-21 16:09N 59°03' E 010°03'0 0.0
2016-Sep-21 03:18N 59°03' E 010°03'0 0.0
2016-Sep-21 02:33N 59°03' E 010°03'0 0.0
2016-Sep-20 17:33N 59°03' E 010°03'0 0.0
2016-Sep-20 14:30N 59°03' E 010°03'0 0.0
2016-Sep-20 02:24N 59°03' E 010°03'0 0.0
2016-Sep-19 23:30N 59°03' E 010°03'0 0.0
2016-Sep-19 19:15N 59°03' E 010°03'  
2016-Sep-17 13:20N 58°44' E 009°45'  

Dump ship's entire track history